Time;durP1;ratioP1;P1;durP2;ratioP2;P2;SDS_P1;SDS_P2;PMS_P1;PMS_P2;Temp;Humidity;BMP_temperature;BMP_pressure;BME280_temperature;BME280_humidity;BME280_pressure;Samples;Min_cycle;Max_cycle;Signal;HPM_P1;HPM_P2
2023/06/15 00:00:34;;;;;;;;;;;;;;;18.52;51.36;101752.47;5041116;28;1151;-83
2023/06/15 00:03:00;;;;;;;;;;;;;;;18.49;51.52;101752.78;5044716;28;1008;-83
2023/06/15 00:05:25;;;;;;;;;;;;;;;18.48;51.55;101751.13;5043995;28;1321;-83
2023/06/15 00:07:51;;;;;;;;;;;;;;;18.45;51.56;101761.94;5063158;28;1957;-82
2023/06/15 00:10:17;;;;;;;;;;;;;;;18.42;52.08;101757.00;5048773;28;1091;-82
2023/06/15 00:12:42;;;;;;;;;;;;;;;18.39;51.89;101752.03;5046584;28;1024;-83
2023/06/15 00:15:07;;;;;;;;;;;;;;;18.35;52.05;101755.97;5050453;28;1507;-83
2023/06/15 00:17:37;;;;;;;;;;;;;;;18.31;51.98;101755.44;5052678;28;1871;-82
2023/06/15 00:20:03;;;;;;;;;;;;;;;18.28;52.20;101755.75;5048530;28;1277;-83
2023/06/15 00:22:29;;;;;;;;;;;;;;;18.25;52.31;101760.50;5048240;28;1218;-83
2023/06/15 00:24:54;;;;;;;;;;;;;;;18.22;52.22;101760.78;5048030;28;1374;-83
2023/06/15 00:27:19;;;;;;;;;;;;;;;18.18;52.39;101762.06;5054966;28;1866;-83
2023/06/15 00:29:44;;;;;;;;;;;;;;;18.13;52.52;101766.97;5056130;28;1070;-83
2023/06/15 00:32:10;;;;;;;;;;;;;;;18.12;52.56;101765.28;5048155;28;1352;-83
2023/06/15 00:34:35;;;;;;;;;;;;;;;18.11;52.60;101763.63;5041298;28;1334;-84
2023/06/15 00:37:00;;;;;;;;;;;;;;;18.11;52.81;101767.09;5048463;28;1496;-82
2023/06/15 00:39:25;;;;;;;;;;;;;;;18.09;53.29;101760.34;5053410;28;1294;-83
2023/06/15 00:41:51;;;;;;;;;;;;;;;18.08;53.15;101758.72;5060442;28;1071;-83
2023/06/15 00:44:16;;;;;;;;;;;;;;;18.06;53.06;101766.72;5047367;28;1262;-83
2023/06/15 00:46:41;;;;;;;;;;;;;;;18.03;53.14;101767.84;5052240;28;1989;-82
2023/06/15 00:49:07;;;;;;;;;;;;;;;17.98;53.27;101769.28;5060324;28;1337;-82
2023/06/15 00:51:34;;;;;;;;;;;;;;;17.91;53.25;101766.44;5055582;28;1218;-82
2023/06/15 00:53:59;;;;;;;;;;;;;;;17.86;53.36;101767.84;5055628;28;1297;-82
2023/06/15 00:56:29;;;;;;;;;;;;;;;17.81;53.62;101768.31;5055596;28;1193;-83
2023/06/15 00:58:54;;;;;;;;;;;;;;;17.74;53.34;101767.25;5044153;28;1321;-82
2023/06/15 01:01:20;;;;;;;;;;;;;;;17.72;53.27;101771.81;5043847;28;1191;-82
2023/06/15 01:03:45;;;;;;;;;;;;;;;17.71;53.42;101780.63;5049431;28;1289;-84
2023/06/15 01:06:16;;;;;;;;;;;;;;;17.69;53.70;101774.72;5041457;28;1990;-83
2023/06/15 01:08:44;;;;;;;;;;;;;;;17.69;53.72;101779.97;5046015;28;1405;-84
2023/06/15 01:11:09;;;;;;;;;;;;;;;17.66;53.79;101775.00;5047265;28;1175;-83
2023/06/15 01:13:35;;;;;;;;;;;;;;;17.64;53.54;101775.16;5051132;28;1105;-83
2023/06/15 01:16:02;;;;;;;;;;;;;;;17.60;53.43;101773.78;5052581;28;1404;-83
2023/06/15 01:18:29;;;;;;;;;;;;;;;17.59;53.54;101780.00;5055432;28;1371;-83
2023/06/15 01:20:56;;;;;;;;;;;;;;;17.53;53.81;101775.34;5051649;28;1494;-83
2023/06/15 01:23:32;;;;;;;;;;;;;;;17.49;53.73;101777.47;5051061;28;1247;-82
2023/06/15 01:25:59;;;;;;;;;;;;;;;17.46;54.12;101775.13;5046075;28;1918;-82
2023/06/15 01:28:25;;;;;;;;;;;;;;;17.42;54.03;101771.13;5051860;28;1327;-84
2023/06/15 01:30:51;;;;;;;;;;;;;;;17.40;54.29;101780.97;5050177;28;1268;-84
2023/06/15 01:33:17;;;;;;;;;;;;;;;17.38;54.62;101776.84;5053595;28;1211;-83
2023/06/15 01:35:42;;;;;;;;;;;;;;;17.36;54.55;101776.97;5046829;28;1198;-83
2023/06/15 01:38:08;;;;;;;;;;;;;;;17.33;54.44;101777.28;5049398;28;1540;-80
2023/06/15 01:40:37;;;;;;;;;;;;;;;17.31;54.62;101781.81;5055078;28;1178;-84
2023/06/15 01:43:05;;;;;;;;;;;;;;;17.29;55.10;101781.16;5054375;28;1345;-82
2023/06/15 01:45:30;;;;;;;;;;;;;;;17.25;54.73;101782.41;5049015;28;1464;-82
2023/06/15 01:47:56;;;;;;;;;;;;;;;17.21;55.07;101786.31;5048813;28;1898;-84
2023/06/15 01:50:22;;;;;;;;;;;;;;;17.17;55.12;101782.31;5044294;28;1282;-83
2023/06/15 01:52:47;;;;;;;;;;;;;;;17.16;55.09;101778.88;5057601;28;1192;-83
2023/06/15 01:55:13;;;;;;;;;;;;;;;17.16;55.44;101780.66;5056243;28;1320;-84
2023/06/15 01:57:39;;;;;;;;;;;;;;;17.16;55.09;101778.03;5054296;28;1305;-84
2023/06/15 02:00:06;;;;;;;;;;;;;;;17.15;55.29;101781.66;5047105;28;1280;-82
2023/06/15 02:02:31;;;;;;;;;;;;;;;17.12;55.51;101781.91;5048507;28;1085;-82
2023/06/15 02:04:57;;;;;;;;;;;;;;;17.11;55.47;101785.50;5044754;28;1110;-83
2023/06/15 02:07:22;;;;;;;;;;;;;;;17.10;55.74;101783.88;5049687;28;1955;-83
2023/06/15 02:09:47;;;;;;;;;;;;;;;17.08;56.40;101780.53;5047021;28;1313;-84
2023/06/15 02:12:12;;;;;;;;;;;;;;;17.05;56.71;101783.47;5049522;28;1356;-83
2023/06/15 02:14:37;;;;;;;;;;;;;;;17.03;56.77;101780.16;5048672;28;1179;-83
2023/06/15 02:17:03;;;;;;;;;;;;;;;17.01;56.33;101779.47;5050799;28;1317;-84
2023/06/15 02:19:28;;;;;;;;;;;;;;;17.01;56.72;101782.09;5052874;28;1037;-82
2023/06/15 02:21:53;;;;;;;;;;;;;;;17.02;57.03;101781.94;5046099;28;1049;-83
2023/06/15 02:24:19;;;;;;;;;;;;;;;17.02;57.47;101781.13;5048861;28;1150;-84
2023/06/15 02:26:46;;;;;;;;;;;;;;;17.00;56.99;101783.91;5050243;28;1890;-83
2023/06/15 02:29:11;;;;;;;;;;;;;;;16.97;57.46;101779.78;5053479;28;1404;-83
2023/06/15 02:31:37;;;;;;;;;;;;;;;16.96;57.44;101788.59;5056150;28;1777;-83
2023/06/15 02:34:02;;;;;;;;;;;;;;;16.96;57.58;101785.16;5049570;28;1282;-83
2023/06/15 02:36:28;;;;;;;;;;;;;;;16.96;58.15;101785.16;5060437;28;1328;-83
2023/06/15 02:38:53;;;;;;;;;;;;;;;16.95;58.37;101786.94;5058828;28;1241;-82
2023/06/15 02:41:19;;;;;;;;;;;;;;;16.95;58.37;101786.94;5044122;28;1289;-81
2023/06/15 02:43:44;;;;;;;;;;;;;;;16.91;58.89;101790.81;5056404;28;1152;-82
2023/06/15 02:46:09;;;;;;;;;;;;;;;16.91;58.07;101792.59;5050789;28;1918;-82
2023/06/15 02:48:34;;;;;;;;;;;;;;;16.89;58.82;101790.13;5055292;28;1063;-83
2023/06/15 02:51:00;;;;;;;;;;;;;;;16.86;59.02;101792.22;5060772;28;1290;-82
2023/06/15 02:53:25;;;;;;;;;;;;;;;16.86;59.62;101789.59;5060588;28;1104;-83
2023/06/15 02:55:51;;;;;;;;;;;;;;;16.84;59.06;101784.50;5052185;28;1483;-82
2023/06/15 02:58:19;;;;;;;;;;;;;;;16.83;60.01;101792.50;5049399;28;1259;-82
2023/06/15 03:00:48;;;;;;;;;;;;;;;16.80;59.75;101800.63;5040925;28;1087;-82
2023/06/15 03:03:13;;;;;;;;;;;;;;;16.76;59.66;101787.00;5043773;28;1465;-83
2023/06/15 03:05:39;;;;;;;;;;;;;;;16.74;60.13;101788.94;5045788;28;1391;-82
2023/06/15 03:08:05;;;;;;;;;;;;;;;16.74;59.60;101799.41;5048271;28;1968;-82
2023/06/15 03:10:30;;;;;;;;;;;;;;;16.73;60.23;101792.53;5048565;28;1325;-82
2023/06/15 03:12:55;;;;;;;;;;;;;;;16.72;60.51;101796.13;5039892;28;1543;-83
2023/06/15 03:15:21;;;;;;;;;;;;;;;16.73;60.38;101797.75;5051079;28;1125;-83
2023/06/15 03:17:46;;;;;;;;;;;;;;;16.71;60.19;101794.47;5055183;28;1097;-82
2023/06/15 03:20:11;;;;;;;;;;;;;;;16.71;60.72;101799.72;5051878;28;1296;-83
2023/06/15 03:22:36;;;;;;;;;;;;;;;16.71;60.80;101794.47;5051593;28;1373;-82
2023/06/15 03:25:02;;;;;;;;;;;;;;;16.69;61.11;101796.38;5054750;28;1325;-82
2023/06/15 03:27:29;;;;;;;;;;;;;;;16.67;61.06;101793.06;5053574;28;1951;-81
2023/06/15 03:29:54;;;;;;;;;;;;;;;16.67;61.03;101803.53;5054081;28;1301;-82
2023/06/15 03:32:20;;;;;;;;;;;;;;;16.68;61.62;101810.41;5054379;28;1277;-82
2023/06/15 03:34:45;;;;;;;;;;;;;;;16.68;61.81;101807.81;5054492;28;1258;-82
2023/06/15 03:37:10;;;;;;;;;;;;;;;16.67;61.77;101808.78;5049710;28;1434;-82
2023/06/15 03:39:35;;;;;;;;;;;;;;;16.65;61.89;101800.25;5053232;28;1372;-82
2023/06/15 03:42:00;;;;;;;;;;;;;;;16.62;61.72;101805.75;5055284;28;1194;-82
2023/06/15 03:44:26;;;;;;;;;;;;;;;16.60;61.83;101802.44;5050039;28;1223;-82
2023/06/15 03:46:51;;;;;;;;;;;;;;;16.58;62.78;101805.22;5047843;28;1893;-83
2023/06/15 03:49:16;;;;;;;;;;;;;;;16.57;62.24;101805.34;5044756;28;1397;-81
2023/06/15 03:51:42;;;;;;;;;;;;;;;16.54;62.81;101800.41;5076288;28;1324;-82
2023/06/15 03:54:07;;;;;;;;;;;;;;;16.53;62.66;101798.75;5056566;28;1396;-83
2023/06/15 03:56:32;;;;;;;;;;;;;;;16.51;62.51;101792.81;5056475;28;1256;-81
2023/06/15 03:58:57;;;;;;;;;;;;;;;16.52;62.95;101802.34;5053651;28;1282;-82
2023/06/15 04:01:25;;;;;;;;;;;;;;;16.52;63.45;101804.97;5037774;28;1326;-82
2023/06/15 04:03:51;;;;;;;;;;;;;;;16.51;63.03;101805.91;5040267;28;1322;-81
2023/06/15 04:06:16;;;;;;;;;;;;;;;16.50;63.09;101801.63;5045267;28;1973;-82
2023/06/15 04:08:42;;;;;;;;;;;;;;;16.48;63.45;101808.81;5047593;28;1056;-82
2023/06/15 04:11:07;;;;;;;;;;;;;;;16.48;63.32;101808.81;5055455;28;1383;-83
2023/06/15 04:13:32;;;;;;;;;;;;;;;16.48;63.72;101804.41;5049333;28;1153;-84
2023/06/15 04:15:57;;;;;;;;;;;;;;;16.46;64.28;101801.94;5048053;28;1288;-83
2023/06/15 04:18:23;;;;;;;;;;;;;;;16.46;63.80;101801.94;5047250;28;1314;-81
2023/06/15 04:20:48;;;;;;;;;;;;;;;16.49;64.13;101800.00;5043462;28;1542;-83
2023/06/15 04:23:14;;;;;;;;;;;;;;;16.50;64.00;101801.63;5052105;28;1689;-82
2023/06/15 04:25:40;;;;;;;;;;;;;;;16.49;64.23;101805.22;5052270;28;1265;-83
2023/06/15 04:28:06;;;;;;;;;;;;;;;16.51;65.30;101811.13;5052429;28;1971;-82
2023/06/15 04:30:32;;;;;;;;;;;;;;;16.51;64.94;101808.50;5048498;28;1522;-82
2023/06/15 04:32:59;;;;;;;;;;;;;;;16.52;65.23;101805.78;5056652;28;1420;-83
2023/06/15 04:35:28;;;;;;;;;;;;;;;16.57;64.98;101818.44;5041177;28;1203;-83
2023/06/15 04:37:53;;;;;;;;;;;;;;;16.59;65.04;101819.13;5043177;28;942;-83
2023/06/15 04:40:20;;;;;;;;;;;;;;;16.64;64.45;101819.56;5051008;28;1285;-83
2023/06/15 04:42:45;;;;;;;;;;;;;;;16.68;64.75;101826.13;5056949;28;1765;-83
2023/06/15 04:45:10;;;;;;;;;;;;;;;16.70;65.31;101819.00;5050629;28;1131;-83
2023/06/15 04:47:36;;;;;;;;;;;;;;;16.69;65.95;101827.81;5053437;28;1969;-83
2023/06/15 04:50:03;;;;;;;;;;;;;;;16.69;65.35;101822.56;5046906;28;1356;-83
2023/06/15 04:52:28;;;;;;;;;;;;;;;16.72;66.34;101827.56;5052477;28;972;-82
2023/06/15 04:54:53;;;;;;;;;;;;;;;16.75;65.90;101829.09;5050498;28;1362;-83
2023/06/15 04:57:18;;;;;;;;;;;;;;;16.76;66.14;101828.09;5045349;28;1186;-83
2023/06/15 04:59:43;;;;;;;;;;;;;;;16.77;65.68;101833.19;5046366;28;1279;-82
2023/06/15 05:02:09;;;;;;;;;;;;;;;16.78;65.72;101832.22;5052476;28;1167;-81
2023/06/15 05:04:34;;;;;;;;;;;;;;;16.79;66.80;101841.72;5048433;28;1052;-83
2023/06/15 05:07:00;;;;;;;;;;;;;;;16.80;66.14;101835.53;5042677;28;1965;-81
2023/06/15 05:09:25;;;;;;;;;;;;;;;16.84;66.22;101842.13;5042362;28;1555;-81
2023/06/15 05:11:51;;;;;;;;;;;;;;;16.90;65.48;101841.56;5042471;28;1211;-81
2023/06/15 05:14:16;;;;;;;;;;;;;;;16.92;67.42;101850.13;5049984;28;1376;-80
2023/06/15 05:16:41;;;;;;;;;;;;;;;16.96;66.42;101855.91;5046713;28;1302;-82
2023/06/15 05:19:06;;;;;;;;;;;;;;;16.96;66.89;101843.63;5049609;28;1290;-81
2023/06/15 05:21:32;;;;;;;;;;;;;;;16.99;66.30;101835.50;5049702;28;1325;-81
2023/06/15 05:23:57;;;;;;;;;;;;;;;17.03;66.40;101835.19;5050322;28;1319;-75
2023/06/15 05:26:22;;;;;;;;;;;;;;;17.09;66.47;101839.88;5036983;28;1994;-76
2023/06/15 05:28:47;;;;;;;;;;;;;;;17.14;66.33;101845.50;5050448;28;1110;-76
2023/06/15 05:31:12;;;;;;;;;;;;;;;17.17;66.27;101837.38;5050695;28;965;-76
2023/06/15 05:33:38;;;;;;;;;;;;;;;17.20;67.15;101842.31;5048236;28;1327;-76
2023/06/15 05:36:03;;;;;;;;;;;;;;;17.28;66.72;101850.31;5040770;28;1305;-77
2023/06/15 05:38:28;;;;;;;;;;;;;;;17.31;66.12;101849.16;5048327;28;1318;-76
2023/06/15 05:40:53;;;;;;;;;;;;;;;17.35;66.50;101846.13;5052368;28;1251;-76
2023/06/15 05:43:19;;;;;;;;;;;;;;;17.38;65.60;101845.84;5052360;28;1174;-76
2023/06/15 05:45:45;;;;;;;;;;;;;;;17.45;66.15;101846.09;5043903;28;1901;-76
2023/06/15 05:48:10;;;;;;;;;;;;;;;17.51;65.70;101848.97;5050315;28;1886;-76
2023/06/15 05:50:35;;;;;;;;;;;;;;;17.60;65.89;101855.09;5058070;28;1194;-76
2023/06/15 05:53:01;;;;;;;;;;;;;;;17.67;66.40;101850.94;5053097;28;1275;-76
2023/06/15 05:55:26;;;;;;;;;;;;;;;17.70;66.23;101853.25;5045070;28;1267;-76
2023/06/15 05:57:51;;;;;;;;;;;;;;;17.75;65.15;101858.94;5049236;28;1191;-76
2023/06/15 06:00:17;;;;;;;;;;;;;;;17.82;65.41;101859.16;5053616;28;1192;-76
2023/06/15 06:02:42;;;;;;;;;;;;;;;17.89;65.07;101860.25;5056454;28;1521;-76
2023/06/15 06:05:08;;;;;;;;;;;;;;;17.98;65.07;101859.34;5051977;28;1209;-76
2023/06/15 06:07:33;;;;;;;;;;;;;;;18.07;64.98;101862.06;5042395;28;1976;-76
2023/06/15 06:09:58;;;;;;;;;;;;;;;18.13;64.98;101861.47;5048551;28;1365;-77
2023/06/15 06:12:23;;;;;;;;;;;;;;;18.20;65.19;101862.53;5049938;28;1421;-76
2023/06/15 06:14:48;;;;;;;;;;;;;;;18.27;64.60;101856.50;5052866;28;1139;-82
2023/06/15 06:17:14;;;;;;;;;;;;;;;18.34;64.86;101854.09;5052469;28;1096;-82
2023/06/15 06:19:39;;;;;;;;;;;;;;;18.39;64.32;101851.84;5053348;28;1388;-79
2023/06/15 06:22:04;;;;;;;;;;;;;;;18.45;64.52;101861.75;5048392;28;1316;-81
2023/06/15 06:24:30;;;;;;;;;;;;;;;18.51;64.26;101850.63;5055255;28;1446;-80
2023/06/15 06:26:55;;;;;;;;;;;;;;;18.61;63.94;101855.00;5049559;28;1890;-81
2023/06/15 06:29:20;;;;;;;;;;;;;;;18.71;63.55;101856.59;5056059;28;1079;-80
2023/06/15 06:31:46;;;;;;;;;;;;;;;18.80;63.46;101854.81;5054062;28;1309;-81
2023/06/15 06:34:11;;;;;;;;;;;;;;;18.90;63.14;101854.72;5047334;28;1403;-81
2023/06/15 06:36:36;;;;;;;;;;;;;;;18.97;63.15;101859.22;5051637;28;1276;-81
2023/06/15 06:39:01;;;;;;;;;;;;;;;19.02;63.04;101859.56;5053187;28;1174;-81
2023/06/15 06:41:26;;;;;;;;;;;;;;;19.04;63.27;101857.63;5055177;28;1029;-80
2023/06/15 06:43:52;;;;;;;;;;;;;;;19.12;62.98;101864.72;5042390;28;1316;-81
2023/06/15 06:46:17;;;;;;;;;;;;;;;19.21;62.48;101862.97;5055863;28;1960;-81
2023/06/15 06:48:42;;;;;;;;;;;;;;;19.30;62.75;101867.28;5052958;28;1145;-81
2023/06/15 06:51:08;;;;;;;;;;;;;;;19.37;62.43;101868.31;5049224;28;1418;-81
2023/06/15 06:53:33;;;;;;;;;;;;;;;19.46;62.09;101862.13;5049018;28;1271;-81
2023/06/15 06:55:58;;;;;;;;;;;;;;;19.58;61.93;101860.88;5054861;28;1521;-81
2023/06/15 06:58:23;;;;;;;;;;;;;;;19.68;61.07;101865.19;5052062;28;1180;-80
2023/06/15 07:00:48;;;;;;;;;;;;;;;19.75;61.01;101866.19;5043892;28;1330;-80
2023/06/15 07:03:14;;;;;;;;;;;;;;;19.83;60.51;101863.56;5064193;28;1203;-81
2023/06/15 07:05:39;;;;;;;;;;;;;;;19.92;60.15;101865.25;5042534;28;1200;-79
2023/06/15 07:08:04;;;;;;;;;;;;;;;20.00;59.10;101867.91;5051713;28;1901;-80
2023/06/15 07:10:29;;;;;;;;;;;;;;;20.03;58.98;101864.13;5045672;28;1305;-80
2023/06/15 07:12:56;;;;;;;;;;;;;;;20.12;59.19;101863.97;5047305;28;1365;-79
2023/06/15 07:15:22;;;;;;;;;;;;;;;20.22;59.65;101870.91;5048317;28;1167;-79
2023/06/15 07:17:47;;;;;;;;;;;;;;;20.30;58.35;101865.63;5050493;28;1192;-80
2023/06/15 07:20:12;;;;;;;;;;;;;;;20.40;58.76;101871.56;5047276;28;1341;-80
2023/06/15 07:22:37;;;;;;;;;;;;;;;20.51;58.33;101863.38;5050983;28;1230;-81
2023/06/15 07:25:03;;;;;;;;;;;;;;;20.62;57.92;101876.22;5053546;28;1874;-80
2023/06/15 07:27:28;;;;;;;;;;;;;;;20.73;57.84;101866.34;5044762;28;1890;-80
2023/06/15 07:29:53;;;;;;;;;;;;;;;20.82;57.24;101875.88;5051008;28;2214;-79
2023/06/15 07:32:18;;;;;;;;;;;;;;;20.93;57.03;101867.59;5050983;28;1310;-80
2023/06/15 07:34:44;;;;;;;;;;;;;;;21.03;54.91;101862.16;5052773;28;1521;-79
2023/06/15 07:37:09;;;;;;;;;;;;;;;21.07;55.76;101864.28;5049963;28;2391;-79
2023/06/15 07:39:36;;;;;;;;;;;;;;;21.17;54.46;101864.13;5044081;28;2711;-79
2023/06/15 07:42:02;;;;;;;;;;;;;;;21.26;55.09;101863.06;5047479;28;1157;-79
2023/06/15 07:44:27;;;;;;;;;;;;;;;21.38;54.83;101866.19;5062644;28;1061;-79
2023/06/15 07:46:52;;;;;;;;;;;;;;;21.49;54.89;101868.47;5050643;28;1973;-80
2023/06/15 07:49:17;;;;;;;;;;;;;;;21.60;54.08;101870.72;5066026;28;1702;-79
2023/06/15 07:51:44;;;;;;;;;;;;;;;21.73;54.51;101876.28;5057463;28;1184;-80
2023/06/15 07:54:09;;;;;;;;;;;;;;;21.85;54.59;101873.22;5052109;28;1081;-79
2023/06/15 07:56:34;;;;;;;;;;;;;;;21.87;53.05;101877.38;5048139;28;1144;-80
2023/06/15 07:58:59;;;;;;;;;;;;;;;21.94;52.85;101866.91;5044036;28;1589;-79
2023/06/15 08:01:25;;;;;;;;;;;;;;;22.01;51.93;101868.69;5041638;28;2163;-79
2023/06/15 08:03:50;;;;;;;;;;;;;;;22.03;53.21;101865.88;5063729;28;1461;-81
2023/06/15 08:06:15;;;;;;;;;;;;;;;22.10;53.46;101872.13;5043928;28;1898;-80
2023/06/15 08:08:40;;;;;;;;;;;;;;;22.22;52.78;101864.63;5040111;28;1327;-80
2023/06/15 08:11:06;;;;;;;;;;;;;;;22.34;53.22;101867.66;5048132;28;1247;-79
2023/06/15 08:13:31;;;;;;;;;;;;;;;22.41;52.91;101868.59;5044473;28;1090;-80
2023/06/15 08:15:57;;;;;;;;;;;;;;;22.52;52.37;101868.19;5050830;28;1162;-79
2023/06/15 08:18:22;;;;;;;;;;;;;;;22.62;52.59;101866.09;5047928;28;1191;-81
2023/06/15 08:20:47;;;;;;;;;;;;;;;22.67;52.25;101858.47;5047350;28;1348;-80
2023/06/15 08:23:13;;;;;;;;;;;;;;;22.77;52.36;101864.31;5047483;28;1517;-80
2023/06/15 08:25:38;;;;;;;;;;;;;;;22.88;51.82;101864.91;5045682;28;1459;-80
2023/06/15 08:28:03;;;;;;;;;;;;;;;22.95;51.42;101866.66;5043081;28;1893;-81
2023/06/15 08:30:28;;;;;;;;;;;;;;;23.04;51.78;101880.59;5048896;28;1198;-81
2023/06/15 08:32:53;;;;;;;;;;;;;;;23.10;51.92;101868.47;5050927;28;2026;-80
2023/06/15 08:35:19;;;;;;;;;;;;;;;23.10;50.21;101874.59;5045935;28;1662;-80
2023/06/15 08:37:44;;;;;;;;;;;;;;;23.06;51.27;101878.63;5049646;28;1227;-80
2023/06/15 08:40:10;;;;;;;;;;;;;;;23.05;51.10;101872.50;5045588;28;1096;-79
2023/06/15 08:42:35;;;;;;;;;;;;;;;23.06;50.22;101875.97;5048228;28;1253;-78
2023/06/15 08:45:03;;;;;;;;;;;;;;;23.07;50.10;101869.66;5049139;28;1447;-79
2023/06/15 08:47:29;;;;;;;;;;;;;;;23.21;50.48;101870.66;5043432;28;1964;-80
2023/06/15 08:49:55;;;;;;;;;;;;;;;23.28;49.42;101872.41;5067141;28;1649;-79
2023/06/15 08:52:23;;;;;;;;;;;;;;;23.36;49.62;101871.50;5042728;28;1303;-80
2023/06/15 08:54:51;;;;;;;;;;;;;;;23.50;49.31;101872.47;5054461;28;1145;-79
2023/06/15 08:57:16;;;;;;;;;;;;;;;23.61;47.92;101866.69;5051428;28;1355;-79
2023/06/15 08:59:42;;;;;;;;;;;;;;;23.70;47.43;101865.63;5052665;28;1518;-79
2023/06/15 09:02:12;;;;;;;;;;;;;;;23.83;45.66;101868.41;5046909;28;1416;-81
2023/06/15 09:04:38;;;;;;;;;;;;;;;23.95;46.03;101874.03;5054037;28;1278;-79
2023/06/15 09:07:03;;;;;;;;;;;;;;;24.02;45.62;101872.28;5048601;28;1940;-78
2023/06/15 09:09:29;;;;;;;;;;;;;;;24.15;43.84;101868.94;5042084;28;1289;-79
2023/06/15 09:11:54;;;;;;;;;;;;;;;24.22;43.18;101869.81;5038265;28;1272;-80
2023/06/15 09:14:19;;;;;;;;;;;;;;;24.32;43.44;101869.53;5045765;28;1051;-79
2023/06/15 09:16:46;;;;;;;;;;;;;;;24.33;42.42;101877.28;5045579;28;1072;-79
2023/06/15 09:19:11;;;;;;;;;;;;;;;24.37;41.23;101872.44;5040463;28;1349;-80
2023/06/15 09:21:48;;;;;;;;;;;;;;;24.40;39.18;101865.94;5043905;28;1365;-80
2023/06/15 09:24:15;;;;;;;;;;;;;;;24.36;42.26;101861.00;5050271;28;1072;-80
2023/06/15 09:26:40;;;;;;;;;;;;;;;24.34;40.52;101867.47;5042176;28;1957;-80
2023/06/15 09:29:08;;;;;;;;;;;;;;;24.39;41.29;101869.59;5044578;28;1270;-81
2023/06/15 09:31:34;;;;;;;;;;;;;;;24.55;42.22;101866.69;5053267;28;1257;-80
2023/06/15 09:34:00;;;;;;;;;;;;;;;24.67;41.66;101864.31;5050931;28;1038;-79
2023/06/15 09:36:26;;;;;;;;;;;;;;;24.77;41.70;101852.31;5051670;28;1120;-79
2023/06/15 09:38:54;;;;;;;;;;;;;;;24.84;41.43;101865.66;5044841;28;1577;-81
2023/06/15 09:41:20;;;;;;;;;;;;;;;24.89;40.82;101850.81;5057218;28;1192;-79
2023/06/15 09:43:45;;;;;;;;;;;;;;;24.97;39.87;101857.78;5049739;28;1238;-78
2023/06/15 09:46:16;;;;;;;;;;;;;;;25.00;39.70;101862.69;5046644;28;2001;-80
2023/06/15 09:48:43;;;;;;;;;;;;;;;25.15;40.86;101859.94;5047017;28;1484;-80
2023/06/15 09:51:09;;;;;;;;;;;;;;;25.17;39.80;101857.91;5047084;28;1089;-80
2023/06/15 09:53:34;;;;;;;;;;;;;;;25.31;38.43;101858.81;5054772;28;1191;-80
2023/06/15 09:56:00;;;;;;;;;;;;;;;25.38;39.30;101859.66;5052888;28;1403;-79
2023/06/15 09:58:25;;;;;;;;;;;;;;;25.55;38.81;101854.81;5054306;28;1254;-79
2023/06/15 10:00:53;;;;;;;;;;;;;;;25.61;38.25;101856.66;5064417;28;1278;-80
2023/06/15 10:03:22;;;;;;;;;;;;;;;25.65;37.34;101845.44;5058506;28;1329;-79
2023/06/15 10:05:49;;;;;;;;;;;;;;;25.72;37.75;101856.09;5046238;28;1408;-79
2023/06/15 10:08:16;;;;;;;;;;;;;;;25.77;39.08;101855.53;5044007;28;1894;-79
2023/06/15 10:10:43;;;;;;;;;;;;;;;25.75;38.23;101861.06;5050761;28;1162;-79
2023/06/15 10:13:12;;;;;;;;;;;;;;;25.75;36.78;101861.06;5045167;28;1226;-79
2023/06/15 10:15:38;;;;;;;;;;;;;;;25.77;36.70;101859.00;5050366;28;1322;-79
2023/06/15 10:18:03;;;;;;;;;;;;;;;25.87;38.24;101854.13;5046296;28;1292;-79
2023/06/15 10:20:29;;;;;;;;;;;;;;;25.90;37.42;101853.72;5058660;28;1274;-80
2023/06/15 10:23:05;;;;;;;;;;;;;;;25.89;36.38;101857.38;5051117;28;1438;-80
2023/06/15 10:25:31;;;;;;;;;;;;;;;26.07;36.44;101859.47;5049885;28;1250;-79
2023/06/15 10:27:56;;;;;;;;;;;;;;;26.01;34.35;101849.63;5054034;28;2002;-80
2023/06/15 10:30:28;;;;;;;;;;;;;;;25.90;34.75;101848.38;5052524;28;1361;-79
2023/06/15 10:32:53;;;;;;;;;;;;;;;25.93;36.11;101848.00;5064207;28;1634;-80
2023/06/15 10:35:32;;;;;;;;;;;;;;;26.06;33.87;101857.00;5044781;28;1222;-80
2023/06/15 10:38:00;;;;;;;;;;;;;;;26.11;33.93;101849.25;5066118;28;1301;-79
2023/06/15 10:40:31;;;;;;;;;;;;;;;26.14;34.88;101848.84;5047301;28;1305;-80
2023/06/15 10:42:57;;;;;;;;;;;;;;;26.24;34.98;101849.25;5048340;28;1293;-80
2023/06/15 10:45:32;;;;;;;;;;;;;;;26.35;35.44;101845.97;5062045;28;1240;-79
2023/06/15 10:48:01;;;;;;;;;;;;;;;26.53;35.97;101847.22;5061446;28;1953;-79
2023/06/15 10:50:27;;;;;;;;;;;;;;;26.64;34.64;101849.28;5047332;28;1349;-79
2023/06/15 10:52:52;;;;;;;;;;;;;;;26.63;36.04;101852.97;5048332;28;1328;-80
2023/06/15 10:55:22;;;;;;;;;;;;;;;26.58;34.90;101855.41;5057836;28;1444;-80
2023/06/15 10:57:48;;;;;;;;;;;;;;;26.42;35.15;101852.16;5047052;28;1349;-80
2023/06/15 11:00:23;;;;;;;;;;;;;;;26.35;35.46;101851.31;5046284;28;1307;-79
2023/06/15 11:02:50;;;;;;;;;;;;;;;26.41;34.13;101855.84;5044157;28;1295;-80
2023/06/15 11:05:17;;;;;;;;;;;;;;;26.39;34.36;101857.88;5059549;28;1174;-78
2023/06/15 11:07:46;;;;;;;;;;;;;;;26.32;34.79;101850.88;5043209;28;1941;-79
2023/06/15 11:10:15;;;;;;;;;;;;;;;26.31;34.79;101849.25;5047062;28;1179;-80
2023/06/15 11:12:42;;;;;;;;;;;;;;;26.35;35.79;101856.63;5046311;28;1150;-80
2023/06/15 11:15:08;;;;;;;;;;;;;;;26.33;35.07;101853.34;5043230;28;1356;-79
2023/06/15 11:17:52;;;;;;;;;;;;;;;26.32;35.67;101851.69;5051187;28;1034;-80
2023/06/15 11:20:37;;;;;;;;;;;;;;;26.34;37.35;101849.66;5049243;28;1169;-79
2023/06/15 11:23:02;;;;;;;;;;;;;;;26.43;35.44;101853.78;5047879;28;1294;-80
2023/06/15 11:25:29;;;;;;;;;;;;;;;26.31;35.71;101855.38;5046620;28;1395;-79
2023/06/15 11:27:55;;;;;;;;;;;;;;;26.15;34.75;101851.31;5044421;28;1902;-79
2023/06/15 11:30:20;;;;;;;;;;;;;;;26.01;35.82;101854.97;5052831;28;1282;-79
2023/06/15 11:32:45;;;;;;;;;;;;;;;26.00;34.92;101863.97;5056055;28;1023;-80
2023/06/15 11:35:10;;;;;;;;;;;;;;;26.07;36.56;101854.16;5042382;28;1155;-79
2023/06/15 11:37:35;;;;;;;;;;;;;;;26.13;35.96;101852.50;5055156;28;1321;-79
2023/06/15 11:40:02;;;;;;;;;;;;;;;26.21;35.60;101849.69;5048749;28;1191;-79
2023/06/15 11:42:27;;;;;;;;;;;;;;;26.29;35.03;101846.81;5049919;28;1369;-79
2023/06/15 11:44:52;;;;;;;;;;;;;;;26.44;35.30;101850.13;5053797;28;1310;-79
2023/06/15 11:47:17;;;;;;;;;;;;;;;26.55;35.21;101851.31;5051648;28;1960;-80
2023/06/15 11:49:46;;;;;;;;;;;;;;;26.56;34.23;101841.50;5052706;28;1174;-80
2023/06/15 11:52:11;;;;;;;;;;;;;;;26.60;33.98;101840.06;5046024;28;1468;-80
2023/06/15 11:54:36;;;;;;;;;;;;;;;26.66;34.49;101836.56;5048393;28;1164;-79
2023/06/15 11:57:02;;;;;;;;;;;;;;;26.82;33.90;101836.13;5041905;28;1211;-80
2023/06/15 11:59:27;;;;;;;;;;;;;;;26.95;34.20;101836.13;5056906;28;1127;-80
2023/06/15 12:01:57;;;;;;;;;;;;;;;27.08;32.59;101823.81;5068936;28;1574;-81
2023/06/15 12:04:22;;;;;;;;;;;;;;;27.11;33.21;101828.72;5047535;28;1325;-80
2023/06/15 12:06:47;;;;;;;;;;;;;;;27.07;33.35;101827.47;5053362;28;1960;-79
2023/06/15 12:09:14;;;;;;;;;;;;;;;27.04;32.26;101822.56;5053337;28;1273;-79
2023/06/15 12:11:39;;;;;;;;;;;;;;;27.08;32.90;101818.50;5038668;28;1638;-82
2023/06/15 12:14:08;;;;;;;;;;;;;;;27.14;32.86;101820.31;5040969;28;1385;-79
2023/06/15 12:16:34;;;;;;;;;;;;;;;27.21;32.91;101813.09;5036207;28;1686;-80
2023/06/15 12:19:00;;;;;;;;;;;;;;;27.28;32.47;101813.88;5039979;28;1622;-79
2023/06/15 12:21:35;;;;;;;;;;;;;;;27.39;33.01;101807.88;5089126;27;1269;-77
2023/06/15 12:24:02;;;;;;;;;;;;;;;27.43;32.06;101810.97;5084051;28;1359;-76
2023/06/15 12:26:33;;;;;;;;;;;;;;;27.42;30.45;101807.47;5087929;28;1076;-76
2023/06/15 12:28:59;;;;;;;;;;;;;;;27.37;32.38;101812.63;5087166;28;1031;-76
2023/06/15 12:31:34;;;;;;;;;;;;;;;27.43;31.11;101801.13;5081228;28;1536;-74
2023/06/15 12:34:05;;;;;;;;;;;;;;;27.49;32.54;101813.59;5075218;28;2262;-75
2023/06/15 12:36:30;;;;;;;;;;;;;;;27.60;32.24;101800.63;5108832;27;1824;-76
2023/06/15 12:38:55;;;;;;;;;;;;;;;27.59;32.72;101804.31;5076097;28;1744;-76
2023/06/15 12:41:20;;;;;;;;;;;;;;;27.60;31.13;101800.63;5069416;28;1973;-75